Latest Weather Observations for Gladstone

IDQ60801

Issued at 1:36 am EST Wednesday 29 March 2017 (issued every 30 minutes, with the page automatically refreshed every 10 minutes)

About weather observations | Map of weather stations | Latest weather observations for QLD | Other Formats
Station Details ID: 039123 Name: GLADSTONE RADAR Lat: -23.86 Lon: 151.26 Height: 74.5 m
Data from the previous 72 hours. | See also: Recent months at Gladstone
Date/Time
EST
Temp
°C
App
Temp
°C
Dew
Point
°C
Rel
Hum
%
Delta-T
°C
Wind Press
QNH
hPa
Press
MSL
hPa
Rain since
9am
mm
Dir  Spd
km/h
Gust
km/h
Spd
kts
Gust
kts
29/01:30am 24.8 28.3 24.8 100 0.0 NE 15 22 8 12 1009.2 1008.7 52.8
29/01:00am 24.3 27.1 24.3 100 0.0 NNE 17 32 9 17 1009.5 1009.0 52.8
29/12:30am 26.0 29.9 26.0 100 0.0 E 17 28 9 15 1009.7 1009.2 52.8
29/12:00am 25.6 27.9 25.6 100 0.0 E 24 30 13 16 1009.8 1009.3 52.0
 
Date/Time
EST
Temp
°C
App
Temp
°C
Dew
Point
°C
Rel
Hum
%
Delta-T
°C
Wind Press
QNH
hPa
Press
MSL
hPa
Rain since
9am
mm
Dir  Spd
km/h
Gust
km/h
Spd
kts
Gust
kts
28/11:30pm 25.4 28.3 25.4 100 0.0 ENE 20 24 11 13 1010.2 1009.8 52.0
28/11:00pm 25.0 27.3 25.0 100 0.0 E 22 28 12 15 1010.5 1010.1 52.0
28/10:30pm 24.8 27.3 24.8 100 0.0 E 20 30 11 16 1010.7 1010.3 52.0
28/10:00pm 24.7 26.4 24.7 100 0.0 ENE 24 35 13 19 1010.8 1010.4 50.8
28/09:30pm 25.7 26.5 25.7 100 0.0 E 32 41 17 22 1010.7 1010.3 42.4
28/09:00pm 25.6 27.1 25.6 100 0.0 E 28 43 15 23 1010.2 1009.8 41.2
28/08:30pm 24.7 27.2 24.7 100 0.0 ESE 20 33 11 18 1010.2 1009.8 40.4
28/08:00pm 24.6 27.0 24.6 100 0.0 ESE 20 33 11 18 1010.1 1009.7 38.4
28/07:30pm 24.3 26.5 24.3 100 0.0 SE 20 30 11 16 1010.0 1009.5 37.8
28/07:00pm 24.4 25.9 24.4 100 0.0 SE 24 41 13 22 1009.6 1009.1 37.8
28/06:30pm 24.6 26.3 24.6 100 0.0 ESE 24 43 13 23 1009.2 1008.7 36.6
28/06:00pm 24.6 26.6 24.6 100 0.0 ESE 22 35 12 19 1009.0 1008.5 33.2
28/05:30pm 24.9 25.2 24.9 100 0.0 ESE 32 44 17 24 1008.9 1008.4 30.6
28/05:23pm 24.9 26.0 24.9 100 0.0 ESE 28 46 15 25 1009.0 1008.5 30.6
28/05:00pm 24.8 26.6 24.8 100 0.0 ESE 24 37 13 20 1008.9 1008.4 30.6
28/04:30pm 24.9 26.0 24.9 100 0.0 ESE 28 41 15 22 1008.7 1008.2 29.8
28/04:00pm 24.7 26.0 24.7 100 0.0 ESE 26 44 14 24 1008.5 1008.0 29.6
28/03:30pm 25.3 26.2 25.3 100 0.0 E 30 43 16 23 1008.5 1008.0 26.8
28/03:00pm 25.8 27.1 25.3 97 0.4 ESE 28 37 15 20 1008.3 1007.8 25.2
28/02:30pm 26.1 27.4 25.9 99 0.1 E 30 43 16 23 1008.4 1007.9 25.2
28/02:00pm 25.7 26.5 25.7 100 0.0 E 32 43 17 23 1008.8 1008.3 25.2
28/01:30pm 25.5 26.6 25.5 100 0.0 E 30 43 16 23 1009.1 1008.6 25.2
28/01:00pm 25.3 27.0 25.3 100 0.0 E 26 39 14 21 1009.5 1009.0 23.8
28/12:30pm 24.4 26.3 24.4 100 0.0 E 22 30 12 16 1009.9 1009.4 23.6
28/12:00pm 24.6 26.3 24.6 100 0.0 ENE 24 39 13 21 1010.1 1009.7 22.4
28/11:30am 23.8 24.6 23.8 100 0.0 ENE 26 44 14 24 1010.8 1010.4 20.4
28/11:00am 23.4 26.1 23.4 100 0.0 NNE 15 28 8 15 1011.2 1010.8 20.0
28/10:30am 24.9 25.6 24.9 100 0.0 E 30 50 16 27 1011.0 1010.6 6.2
28/10:18am 25.5 25.9 25.3 99 0.1 E 33 52 18 28 1011.0 1010.6 0.6
28/10:00am 25.7 26.7 25.4 98 0.2 E 30 44 16 24 1011.0 1010.6 0.2
28/09:30am 26.1 27.1 25.4 96 0.5 E 30 50 16 27 1010.9 1010.5 0.0
28/09:28am 26.2 27.3 25.5 96 0.5 E 30 50 16 27 1010.8 1010.4 0.0
28/09:00am 26.2 26.3 25.5 96 0.5 E 35 46 19 25 1011.0 1010.6 34.2
28/08:36am 25.8 26.4 25.6 99 0.1 E 33 52 18 28 1010.7 1010.3 34.2
28/08:30am 25.5 27.0 25.5 100 0.0 E 28 41 15 22 1010.6 1010.2 34.2
28/08:00am 24.4 26.7 24.4 100 0.0 ESE 20 30 11 16 1010.6 1010.2 34.2
28/07:30am 23.9 25.5 23.9 100 0.0 E 22 35 12 19 1010.3 1009.9 34.2
28/07:00am 23.5 24.9 23.5 100 0.0 ESE 22 35 12 19 1009.9 1009.4 32.0
28/06:30am 23.3 23.8 23.3 100 0.0 SE 26 37 14 20 1009.7 1009.2 30.0
28/06:00am 23.4 25.2 23.2 99 0.1 SE 19 30 10 16 1009.4 1008.9 26.8
28/05:30am 23.5 25.1 23.3 99 0.1 SE 20 32 11 17 1009.1 1008.6 26.4
28/05:00am 23.9 25.0 23.6 98 0.2 ESE 24 39 13 21 1008.8 1008.3 26.4
28/04:30am 23.7 24.1 23.7 100 0.0 ESE 28 39 15 21 1008.7 1008.2 26.4
28/04:00am 23.4 23.6 23.4 100 0.0 ESE 28 46 15 25 1008.6 1008.1 26.4
28/03:33am 23.1 23.1 23.1 100 0.0 SE 28 46 15 25 1008.7 1008.2 26.4
28/03:30am 23.1 22.3 23.1 100 0.0 SE 32 46 17 25 1008.7 1008.2 26.4
28/03:00am 23.1 23.9 23.1 100 0.0 SE 24 41 13 22 1009.0 1008.5 22.6
28/02:30am 23.1 24.2 23.1 100 0.0 SE 22 35 12 19 1009.2 1008.7 20.2
28/02:00am 23.2 24.4 23.2 100 0.0 SE 22 33 12 18 1009.5 1009.0 20.0
28/01:30am 23.4 24.0 23.4 100 0.0 SE 26 39 14 21 1009.7 1009.2 19.8
28/01:00am 23.5 24.8 23.3 99 0.1 SE 22 35 12 19 1009.9 1009.4 19.2
28/12:39am 23.6 23.8 23.4 99 0.1 SE 28 46 15 25 1009.9 1009.4 19.2
28/12:30am 23.5 23.2 23.3 99 0.1 SE 30 43 16 23 1010.1 1009.7 19.0
28/12:00am 23.5 23.8 23.0 97 0.3 SE 26 44 14 24 1010.4 1010.0 18.6
 
Date/Time
EST
Temp
°C
App
Temp
°C
Dew
Point
°C
Rel
Hum
%
Delta-T
°C
Wind Press
QNH
hPa
Press
MSL
hPa
Rain since
9am
mm
Dir  Spd
km/h
Gust
km/h
Spd
kts
Gust
kts
27/11:30pm 23.9 24.2 23.0 95 0.6 SE 26 41 14 22 1010.7 1010.3 18.2
27/11:00pm 23.8 24.4 22.8 94 0.7 SE 24 37 13 20 1011.1 1010.7 18.2
27/10:30pm 23.6 23.5 22.9 96 0.5 SE 28 41 15 22 1011.0 1010.6 18.2
27/10:00pm 23.4 24.1 22.9 97 0.3 SE 24 37 13 20 1011.3 1010.9 18.2
27/09:30pm 23.7 23.8 23.2 97 0.3 SE 28 44 15 24 1011.4 1011.0 18.2
27/09:00pm 23.3 24.0 23.0 98 0.2 SE 24 37 13 20 1011.6 1011.2 18.2
27/08:30pm 23.1 23.4 22.9 99 0.1 SE 26 44 14 24 1011.6 1011.2 18.2
27/08:00pm 23.2 24.0 23.2 100 0.0 ESE 24 39 13 21 1011.2 1010.8 18.2
27/07:30pm 23.5 23.4 23.5 100 0.0 ESE 30 50 16 27 1010.7 1010.3 16.2
27/07:07pm 23.5 23.4 23.5 100 0.0 ESE 30 50 16 27 1010.6 1010.2 15.6
27/07:00pm 23.4 23.6 23.4 100 0.0 ESE 28 44 15 24 1010.8 1010.4 14.8
27/06:46pm 23.4 23.6 23.4 100 0.0 E 28 46 15 25 1010.9 1010.5 13.0
27/06:30pm 23.7 24.8 23.7 100 0.0 ESE 24 39 13 21 1011.0 1010.6 8.0
27/06:00pm 23.6 26.0 23.6 100 0.0 E 17 24 9 13 1010.8 1010.4 5.4
27/05:30pm 23.7 24.3 23.4 98 0.2 ESE 26 41 14 22 1010.1 1009.7 3.8
27/05:00pm 24.0 24.5 23.3 96 0.5 ESE 26 43 14 23 1009.9 1009.4 3.8
27/04:43pm 24.4 24.6 23.4 94 0.7 ESE 28 46 15 25 1009.6 1009.1 3.6
27/04:30pm 24.3 25.5 23.8 97 0.3 ESE 24 41 13 22 1009.5 1009.0 3.6
27/04:00pm 24.6 25.9 24.1 97 0.3 ESE 24 46 13 25 1009.3 1008.8 3.4
27/03:30pm 24.1 24.0 23.6 97 0.3 ESE 30 50 16 27 1009.4 1008.9 3.4
27/03:00pm 24.7 22.9 24.2 97 0.3 E 41 59 22 32 1009.3 1008.8 3.4
27/02:40pm 26.1 25.9 24.0 88 1.4 ESE 32 52 17 28 1009.3 1008.8 3.2
27/02:30pm 26.4 26.8 23.7 85 1.9 ESE 28 41 15 22 1009.4 1008.9 3.0
27/02:00pm 26.1 25.4 23.6 86 1.7 ESE 33 52 18 28 1009.6 1009.1 3.0
27/01:45pm 26.0 25.8 24.0 89 1.4 ESE 32 52 17 28 1009.6 1009.1 3.0
27/01:30pm 25.8 27.7 24.4 92 1.0 ESE 22 35 12 19 1009.8 1009.3 3.0
27/01:15pm 25.5 25.9 25.0 97 0.3 ESE 32 50 17 27 1010.0 1009.5 3.0
27/01:00pm 25.2 25.5 24.9 98 0.2 ESE 32 43 17 23 1010.0 1009.5 3.0
27/12:30pm 24.5 24.4 24.2 98 0.2 ESE 32 46 17 25 1010.7 1010.3 1.8
27/12:04pm 24.7 22.3 23.8 95 0.6 E 43 61 23 33 1011.1 1010.7 1.6
27/12:00pm 25.2 24.2 24.3 95 0.6 E 37 61 20 33 1011.1 1010.7 1.6
27/11:56am 25.4 26.0 24.2 93 0.8 ESE 28 54 15 29 1011.0 1010.6 1.6
27/11:30am 26.0 25.6 24.6 92 1.0 ESE 35 46 19 25 1011.4 1011.0 0.0
27/11:13am 27.0 27.2 24.1 84 2.0 ESE 30 50 16 27 1011.5 1011.1 0.0
27/11:00am 27.3 26.6 24.2 83 2.1 ESE 35 50 19 27 1011.8 1011.4 0.0
27/10:30am 26.5 25.2 23.8 85 1.9 ESE 37 56 20 30 1011.7 1011.3 0.0
27/10:07am 27.3 26.2 23.5 80 2.6 ESE 35 56 19 30 1011.8 1011.4 0.0
27/10:00am 27.1 26.6 23.8 82 2.3 ESE 33 50 18 27 1011.9 1011.5 0.0
27/09:34am 26.7 26.9 23.4 82 2.3 ESE 28 50 15 27 1011.8 1011.4 0.0
27/09:30am 26.8 27.2 23.7 83 2.1 ESE 28 44 15 24 1011.8 1011.4 0.0
27/09:02am 26.6 27.2 24.1 86 1.7 ESE 28 48 15 26 1012.0 1011.6 0.0
27/09:00am 26.5 26.9 23.8 85 1.9 ESE 28 44 15 24 1011.9 1011.5 1.4
27/08:30am 25.7 27.5 24.3 92 1.0 ESE 22 35 12 19 1012.1 1011.7 1.4
27/08:00am 24.7 25.6 24.0 96 0.5 SE 26 39 14 21 1011.9 1011.5 1.4
27/07:30am 24.0 25.2 23.8 99 0.1 SE 24 33 13 18 1011.7 1011.3 1.4
27/07:00am 23.7 24.3 23.5 99 0.1 SE 26 39 14 21 1011.3 1010.9 1.2
27/06:30am 23.6 25.3 23.4 99 0.1 SE 20 30 11 16 1011.1 1010.7 1.0
27/06:00am 24.0 25.5 23.0 94 0.7 SE 20 32 11 17 1010.9 1010.5 0.0
27/05:30am 24.4 25.4 22.8 91 1.1 ESE 22 33 12 18 1010.5 1010.1 0.0
27/05:00am 24.4 25.7 22.7 90 1.1 SE 20 32 11 17 1010.4 1010.0 0.0
27/04:30am 24.3 26.2 22.7 91 1.1 SE 17 32 9 17 1010.4 1010.0 0.0
27/04:00am 24.4 25.7 22.7 90 1.1 SE 20 30 11 16 1010.4 1010.0 0.0
27/03:30am 24.5 25.8 22.6 89 1.3 SE 20 32 11 17 1010.3 1009.9 0.0
27/03:00am 24.5 25.9 22.6 89 1.3 SE 19 30 10 16 1010.6 1010.2 0.0
27/02:30am 25.0 25.7 22.9 88 1.4 SE 24 43 13 23 1010.7 1010.3 0.0
27/02:00am 24.9 25.9 22.8 88 1.4 SE 22 35 12 19 1011.0 1010.6 0.0
27/01:30am 25.0 26.4 22.9 88 1.4 ESE 20 30 11 16 1011.5 1011.1 0.0
27/01:00am 25.0 26.4 22.9 88 1.4 ESE 20 32 11 17 1011.8 1011.4 0.0
27/12:30am 25.1 26.1 22.8 87 1.6 ESE 22 35 12 19 1012.1 1011.7 0.0
27/12:00am 25.4 26.1 22.9 86 1.7 SE 24 39 13 21 1012.4 1012.0 0.0
 
Date/Time
EST
Temp
°C
App
Temp
°C
Dew
Point
°C
Rel
Hum
%
Delta-T
°C
Wind Press
QNH
hPa
Press
MSL
hPa
Rain since
9am
mm
Dir  Spd
km/h
Gust
km/h
Spd
kts
Gust
kts
26/11:30pm 25.5 26.6 23.0 86 1.7 SE 22 35 12 19 1012.7 1012.3 0.0
26/11:00pm 25.3 26.6 22.4 84 2.0 SE 19 28 10 15 1013.0 1012.6 0.0
26/10:30pm 25.9 26.7 22.4 81 2.4 SE 22 35 12 19 1013.1 1012.7 0.0
26/10:00pm 25.9 26.2 22.2 80 2.5 ESE 24 37 13 20 1013.2 1012.8 0.0
26/09:30pm 25.9 26.2 22.2 80 2.5 ESE 24 39 13 21 1013.3 1012.9 0.0
26/09:00pm 26.0 26.7 22.3 80 2.5 ESE 22 32 12 17 1013.2 1012.8 0.0
26/08:30pm 26.1 27.1 22.2 79 2.6 ESE 20 39 11 21 1012.9 1012.5 0.0
26/08:00pm 26.0 26.4 22.5 81 2.4 ESE 24 39 13 21 1012.4 1012.0 0.0
26/07:30pm 26.1 26.5 22.4 80 2.5 ESE 24 39 13 21 1012.1 1011.7 0.0
26/07:00pm 26.3 27.3 22.2 78 2.8 ESE 20 30 11 16 1011.7 1011.3 0.0
26/06:30pm 26.4 27.1 21.6 75 3.2 ESE 20 35 11 19 1011.4 1011.0 0.0
26/06:00pm 26.6 26.8 21.4 73 3.5 ESE 22 37 12 20 1011.2 1010.8 0.0
26/05:30pm 26.9 26.4 21.4 72 3.7 ESE 26 41 14 22 1010.9 1010.5 0.0
26/05:00pm 27.2 26.0 21.5 71 3.8 ESE 30 41 16 22 1010.5 1010.1 0.0
26/04:30pm 27.6 26.4 20.9 67 4.4 ESE 28 39 15 21 1010.4 1010.0 0.0
26/04:00pm 27.8 26.1 21.3 67 4.3 ESE 32 44 17 24 1010.1 1009.7 0.0
26/03:41pm 28.2 27.4 21.7 68 4.4 ESE 28 46 15 25 1010.1 1009.7 0.0
26/03:30pm 28.4 27.2 22.2 69 4.2 E 32 43 17 23 1010.1 1009.7 0.0
26/03:15pm 28.4 27.9 22.2 69 4.2 E 28 46 15 25 1010.0 1009.5 0.0
26/03:00pm 28.4 28.3 22.2 69 4.2 E 26 43 14 23 1010.0 1009.5 0.0
26/02:30pm 28.2 27.3 22.2 70 4.1 E 30 44 16 24 1010.2 1009.8 0.0
26/02:00pm 28.7 26.9 21.5 65 4.8 E 33 48 18 26 1010.4 1010.0 0.0
26/01:30pm 29.2 28.1 21.7 64 5.1 E 30 41 16 22 1010.6 1010.2 0.0
26/01:00pm 28.6 26.5 20.9 63 5.1 ESE 33 46 18 25 1010.8 1010.4 0.0
26/12:30pm 29.3 27.3 21.8 64 5.1 ESE 35 50 19 27 1011.3 1010.9 0.0
26/12:12pm 29.6 28.4 22.3 65 5.0 ESE 32 52 17 28 1011.6 1011.2 0.0
26/12:00pm 29.3 29.2 23.5 71 4.0 ESE 30 46 16 25 1011.7 1011.3 0.0
26/11:30am 28.3 29.1 23.2 74 3.5 ESE 24 39 13 21 1012.3 1011.9 0.0
26/11:00am 27.7 28.1 22.4 73 3.6 ESE 24 41 13 22 1012.8 1012.4 0.0
26/10:30am 28.3 30.1 23.2 74 3.5 ESE 19 30 10 16 1013.1 1012.7 0.0
26/10:00am 26.9 28.1 22.5 77 3.0 SE 20 33 11 18 1013.2 1012.8 0.0
26/09:30am 27.2 28.5 22.6 76 3.1 SE 20 35 11 19 1013.2 1012.8 0.0
26/09:00am 26.5 27.1 22.8 80 2.5 ESE 24 37 13 20 1013.1 1012.7 0.0
26/08:30am 25.6 26.0 22.5 83 2.1 SE 24 33 13 18 1013.1 1012.7 0.0
26/08:00am 24.6 25.7 22.3 87 1.5 SE 20 30 11 16 1013.1 1012.7 0.0
26/07:30am 24.2 24.8 22.1 88 1.4 SE 22 30 12 16 1012.8 1012.4 0.0
26/07:00am 23.8 25.0 22.1 90 1.1 SE 19 30 10 16 1012.6 1012.2 0.0
26/06:30am 23.7 23.9 22.0 90 1.1 SE 24 35 13 19 1012.3 1011.9 0.0
26/06:00am 23.4 24.4 22.2 93 0.8 SE 20 32 11 17 1012.0 1011.6 0.0
26/05:30am 23.3 24.5 22.1 93 0.8 SE 19 30 10 16 1011.8 1011.4 0.0
26/05:00am 23.3 24.4 21.9 92 0.9 SE 19 30 10 16 1011.6 1011.2 0.0
26/04:30am 23.4 24.2 21.8 91 1.1 SE 20 32 11 17 1011.1 1010.7 0.0
26/04:00am 23.5 24.5 22.1 92 0.9 SE 20 32 11 17 1010.9 1010.5 0.0
26/03:30am 23.1 24.3 22.1 94 0.7 SE 19 30 10 16 1010.7 1010.3 0.0
26/03:00am 23.6 23.7 21.9 90 1.1 SE 24 33 13 18 1010.8 1010.4 0.0
26/02:30am 23.4 24.4 21.7 90 1.1 SE 19 28 10 15 1011.3 1010.9 0.0
26/02:00am 23.4 24.4 21.7 90 1.1 SE 19 28 10 15 1011.7 1011.3 0.0

Other Formats:

Comma delimited format used in spreadsheet applications
http://www.bom.gov.au/fwo/IDQ60801/IDQ60801.94380.axf

JavaScript Object Notation format (JSON) in row-major order
http://www.bom.gov.au/fwo/IDQ60801/IDQ60801.94380.json